createdAt,value
2018-09-05T00:00:28.708Z,0.40
2018-09-05T00:02:58.284Z,0.30
2018-09-05T00:05:27.200Z,0.30
2018-09-05T00:07:56.275Z,0.40
2018-09-05T00:10:25.209Z,0.30
2018-09-05T00:12:54.152Z,0.30
2018-09-05T00:15:23.189Z,0.40
2018-09-05T00:17:52.284Z,0.30
2018-09-05T00:20:21.278Z,0.40
2018-09-05T00:22:50.220Z,0.30
2018-09-05T00:25:19.161Z,0.27
2018-09-05T00:27:48.113Z,0.20
2018-09-05T00:30:17.044Z,0.20
2018-09-05T00:32:45.973Z,0.23
2018-09-05T00:35:14.902Z,0.20
2018-09-05T00:37:43.838Z,0.20
2018-09-05T00:40:12.796Z,0.33
2018-09-05T00:42:41.902Z,0.30
2018-09-05T00:45:10.897Z,0.30
2018-09-05T00:47:40.680Z,0.27
2018-09-05T00:50:09.617Z,0.40
2018-09-05T00:52:38.676Z,0.30
2018-09-05T00:55:07.710Z,0.40
2018-09-05T00:57:36.635Z,0.30
2018-09-05T01:00:05.838Z,0.30
2018-09-05T01:02:34.810Z,0.20
2018-09-05T01:05:03.806Z,0.20
2018-09-05T01:07:32.739Z,0.20
2018-09-05T01:10:01.687Z,0.20
2018-09-05T01:12:32.253Z,0.30
2018-09-05T01:15:01.214Z,0.30
2018-09-05T01:17:30.257Z,0.20
2018-09-05T01:19:59.221Z,0.33
2018-09-05T01:22:28.196Z,0.20
2018-09-05T01:24:57.202Z,0.30
2018-09-05T01:27:26.134Z,0.30
2018-09-05T01:29:57.065Z,0.37
2018-09-05T01:32:26.026Z,0.30
2018-09-05T01:34:54.968Z,0.30
2018-09-05T01:37:23.949Z,0.30
2018-09-05T01:39:52.894Z,0.20
2018-09-05T01:42:21.861Z,0.10
2018-09-05T01:44:50.834Z,0.40
2018-09-05T01:47:19.827Z,0.30
2018-09-05T01:49:48.835Z,0.27
2018-09-05T01:52:17.762Z,0.40
2018-09-05T01:54:46.749Z,0.33
2018-09-05T01:57:15.742Z,0.30
2018-09-05T01:59:44.733Z,0.20
2018-09-05T02:02:14.170Z,0.30
2018-09-05T02:04:43.108Z,0.40
2018-09-05T02:07:12.047Z,0.40
2018-09-05T02:09:40.984Z,0.30
2018-09-05T02:12:09.941Z,0.23
2018-09-05T02:14:38.845Z,0.30
2018-09-05T02:17:07.809Z,0.40
2018-09-05T02:19:36.772Z,0.20
2018-09-05T02:22:05.828Z,0.20
2018-09-05T02:24:34.907Z,0.20
2018-09-05T02:27:03.875Z,0.30
2018-09-05T02:29:32.957Z,0.20
2018-09-05T02:32:02.274Z,0.20
2018-09-05T02:34:31.225Z,0.30
2018-09-05T02:37:00.184Z,0.50
2018-09-05T02:39:29.134Z,0.20
2018-09-05T02:41:58.145Z,0.20
2018-09-05T02:47:09.043Z,0.20
2018-09-05T02:49:38.068Z,0.23
2018-09-05T02:52:07.081Z,0.40
2018-09-05T02:54:36.103Z,0.30
2018-09-05T02:57:05.238Z,0.30
2018-09-05T02:59:34.188Z,0.20
2018-09-05T03:02:03.360Z,0.30
2018-09-05T03:04:32.332Z,0.30
2018-09-05T03:07:01.302Z,0.20
2018-09-05T03:09:30.347Z,0.20
2018-09-05T03:11:59.388Z,0.20
2018-09-05T03:14:28.332Z,0.37
2018-09-05T03:16:57.318Z,0.30
2018-09-05T03:19:26.272Z,0.20
2018-09-05T03:21:55.414Z,0.20
2018-09-05T03:24:24.340Z,0.40
2018-09-05T03:26:53.918Z,0.20
2018-09-05T03:29:23.042Z,0.20
2018-09-05T03:31:52.102Z,0.30
2018-09-05T03:34:21.059Z,0.23
2018-09-05T03:36:50.072Z,0.20
2018-09-05T03:39:19.014Z,0.30
2018-09-05T03:41:48.027Z,0.20
2018-09-05T03:44:16.984Z,0.30
2018-09-05T03:46:45.949Z,0.23
2018-09-05T03:49:14.917Z,0.20
2018-09-05T03:51:43.884Z,0.30
2018-09-05T03:54:12.839Z,0.23
2018-09-05T03:56:41.791Z,0.20
2018-09-05T03:59:10.715Z,0.20
2018-09-05T04:01:39.681Z,0.20
2018-09-05T04:04:08.701Z,0.30
2018-09-05T04:06:37.653Z,0.30
2018-09-05T04:09:08.088Z,0.30
2018-09-05T04:11:37.386Z,0.20
2018-09-05T04:14:06.378Z,0.40
2018-09-05T04:16:35.342Z,0.30
2018-09-05T04:19:04.328Z,0.30
2018-09-05T04:21:33.352Z,0.30
2018-09-05T04:24:02.351Z,0.40
2018-09-05T04:26:31.462Z,0.20
2018-09-05T04:29:00.641Z,0.20
2018-09-05T04:31:29.638Z,0.20
2018-09-05T04:33:58.579Z,0.20
2018-09-05T04:36:27.531Z,0.10
2018-09-05T04:38:56.500Z,0.20
2018-09-05T04:41:25.560Z,0.30
2018-09-05T04:43:54.533Z,0.20
2018-09-05T04:46:23.452Z,0.40
2018-09-05T04:48:52.421Z,0.20
2018-09-05T04:51:21.453Z,0.30
2018-09-05T04:53:51.453Z,0.30
2018-09-05T04:56:20.405Z,0.13
2018-09-05T04:58:54.156Z,0.30
2018-09-05T05:01:23.141Z,0.30
2018-09-05T05:03:52.095Z,0.20
2018-09-05T05:06:21.078Z,0.30
2018-09-05T05:08:50.047Z,0.20
2018-09-05T05:11:19.047Z,0.20
2018-09-05T05:13:48.120Z,0.20
2018-09-05T05:16:17.035Z,0.20
2018-09-05T05:18:46.003Z,0.40
2018-09-05T05:21:14.941Z,0.30
2018-09-05T05:23:43.938Z,0.30
2018-09-05T05:26:12.902Z,0.20
2018-09-05T05:28:41.858Z,0.40
2018-09-05T05:31:10.804Z,0.23
2018-09-05T05:33:39.780Z,0.20
2018-09-05T05:36:08.738Z,0.30
2018-09-05T05:38:37.709Z,0.30
2018-09-05T05:41:07.007Z,0.20
2018-09-05T05:43:35.909Z,0.20
2018-09-05T05:46:04.882Z,0.27
2018-09-05T05:48:33.815Z,0.30
2018-09-05T05:51:03.009Z,0.20
2018-09-05T05:53:32.019Z,0.13
2018-09-05T05:56:01.168Z,0.40
2018-09-05T05:58:30.324Z,0.20
2018-09-05T06:00:59.672Z,0.30
2018-09-05T06:03:28.535Z,0.30
2018-09-05T06:05:57.540Z,0.20
2018-09-05T06:08:26.492Z,0.40
2018-09-05T06:10:55.469Z,0.30
2018-09-05T06:13:24.424Z,0.13
2018-09-05T06:15:53.352Z,0.30
2018-09-05T06:18:22.322Z,0.30
2018-09-05T06:20:51.391Z,0.30
2018-09-05T06:23:20.413Z,0.40
2018-09-05T06:25:49.365Z,0.30
2018-09-05T06:28:18.477Z,0.27
2018-09-05T06:30:47.521Z,0.27
2018-09-05T06:33:18.368Z,0.40
2018-09-05T06:35:48.038Z,0.30
2018-09-05T06:38:17.055Z,0.30
2018-09-05T06:40:45.975Z,0.50
2018-09-05T06:43:14.960Z,0.30
2018-09-05T06:45:44.110Z,0.37
2018-09-05T06:48:13.119Z,0.30
2018-09-05T06:50:42.108Z,0.50
2018-09-05T06:53:11.072Z,0.40
2018-09-05T06:55:40.032Z,0.50
2018-09-05T06:58:09.024Z,0.43
2018-09-05T07:00:38.024Z,0.50
2018-09-05T07:03:07.066Z,0.40
2018-09-05T07:05:36.046Z,0.50
2018-09-05T07:08:05.069Z,0.40
2018-09-05T07:10:34.026Z,0.60
2018-09-05T07:13:02.961Z,0.50
2018-09-05T07:15:31.956Z,0.43
2018-09-05T07:18:01.078Z,0.50
2018-09-05T07:20:30.051Z,0.50
2018-09-05T07:22:58.990Z,0.40
2018-09-05T07:25:27.940Z,0.50
2018-09-05T07:27:56.877Z,0.50
2018-09-05T07:30:25.910Z,0.60
2018-09-05T07:32:54.800Z,0.50
2018-09-05T07:35:23.751Z,0.47
2018-09-05T07:37:52.695Z,0.50
2018-09-05T07:40:21.657Z,0.40
2018-09-05T07:42:56.435Z,0.57
2018-09-05T07:45:25.431Z,0.43
2018-09-05T07:47:54.349Z,0.50
2018-09-05T07:50:23.318Z,0.50
2018-09-05T07:52:52.267Z,0.60
2018-09-05T07:55:21.190Z,0.40
2018-09-05T07:57:50.174Z,0.53
2018-09-05T08:00:19.175Z,0.50
2018-09-05T08:02:48.164Z,0.50
2018-09-05T08:05:17.151Z,0.50
2018-09-05T08:07:46.091Z,0.50
2018-09-05T08:10:15.206Z,0.62
2018-09-05T08:12:44.128Z,0.60
2018-09-05T08:15:13.096Z,0.40
2018-09-05T08:17:42.152Z,0.50
2018-09-05T08:20:11.191Z,0.60
2018-09-05T08:22:40.223Z,0.55
2018-09-05T08:25:09.158Z,0.50
2018-09-05T08:27:38.143Z,0.60
2018-09-05T08:30:07.145Z,0.50
2018-09-05T08:32:36.101Z,0.60
2018-09-05T08:35:05.205Z,0.50
2018-09-05T08:37:34.344Z,0.50
2018-09-05T08:40:03.097Z,0.55
2018-09-05T08:42:34.911Z,0.50
2018-09-05T08:45:04.938Z,0.70
2018-09-05T08:47:34.346Z,0.50
2018-09-05T08:50:03.289Z,0.55
2018-09-05T08:52:32.252Z,0.60
2018-09-05T08:55:01.289Z,0.53
2018-09-05T08:57:30.168Z,0.55
2018-09-05T08:59:59.106Z,0.55
2018-09-05T09:02:28.046Z,0.50
2018-09-05T09:04:56.991Z,0.70
2018-09-05T09:07:26.038Z,0.75
2018-09-05T09:09:55.286Z,0.55
2018-09-05T09:12:24.236Z,0.50
2018-09-05T09:14:53.189Z,0.60
2018-09-05T09:17:22.169Z,0.55
2018-09-05T09:19:51.133Z,0.60
2018-09-05T09:22:20.072Z,0.60
2018-09-05T09:24:49.068Z,0.60
2018-09-05T09:27:18.090Z,0.60
2018-09-05T09:29:47.105Z,0.57
2018-09-05T09:32:16.095Z,0.60
2018-09-05T09:34:45.070Z,0.57
2018-09-05T09:37:14.030Z,0.60
2018-09-05T09:39:43.327Z,0.40
2018-09-05T09:42:12.284Z,0.70
2018-09-05T09:44:41.211Z,0.55
2018-09-05T09:47:10.170Z,0.60
2018-09-05T09:49:39.173Z,0.70
2018-09-05T09:52:13.559Z,0.60
2018-09-05T09:54:42.498Z,0.70
2018-09-05T09:57:11.569Z,0.68
2018-09-05T09:59:40.571Z,0.60
2018-09-05T10:02:15.201Z,0.57
2018-09-05T10:04:49.499Z,0.50
2018-09-05T10:07:23.771Z,0.70
2018-09-05T10:09:54.813Z,0.60
2018-09-05T10:12:28.975Z,0.70
2018-09-05T10:15:02.621Z,0.60
2018-09-05T10:17:34.074Z,0.70
2018-09-05T10:20:03.273Z,0.70
2018-09-05T10:22:32.749Z,0.57
2018-09-05T10:25:01.741Z,0.60
2018-09-05T10:27:30.754Z,0.60
2018-09-05T10:29:59.733Z,0.50
2018-09-05T10:32:28.673Z,0.50
2018-09-05T10:34:57.606Z,0.53
2018-09-05T10:37:26.534Z,0.60
2018-09-05T10:39:55.476Z,0.70
2018-09-05T10:42:24.442Z,0.70
2018-09-05T10:44:53.479Z,0.50
2018-09-05T10:47:22.401Z,0.50
2018-09-05T10:49:51.347Z,0.70
2018-09-05T10:52:20.272Z,0.70
2018-09-05T10:54:49.205Z,0.70
2018-09-05T10:57:18.120Z,0.70
2018-09-05T10:59:47.051Z,0.70
2018-09-05T11:02:16.020Z,0.60
2018-09-05T11:04:44.924Z,0.60
2018-09-05T11:07:14.505Z,0.80
2018-09-05T11:09:43.452Z,0.72
2018-09-05T11:12:12.383Z,0.80
2018-09-05T11:14:41.582Z,0.60
2018-09-05T11:17:10.514Z,0.70
2018-09-05T11:19:39.484Z,0.50
2018-09-05T11:22:08.461Z,0.70
2018-09-05T11:24:37.410Z,0.60
2018-09-05T11:27:06.412Z,0.40
2018-09-05T11:29:35.361Z,0.60
2018-09-05T11:32:04.296Z,0.60
2018-09-05T11:34:33.237Z,0.60
2018-09-05T11:37:02.215Z,0.60
2018-09-05T11:39:31.123Z,0.50
2018-09-05T11:42:00.090Z,0.62
2018-09-05T11:44:29.027Z,0.60
2018-09-05T11:46:57.971Z,0.70
2018-09-05T11:49:26.924Z,0.60
2018-09-05T11:51:55.863Z,0.60
2018-09-05T11:54:24.794Z,0.70
2018-09-05T11:56:53.726Z,0.70
2018-09-05T11:59:22.647Z,0.70
2018-09-05T12:01:51.557Z,0.70
2018-09-05T12:04:20.520Z,0.60
2018-09-05T12:06:49.468Z,0.57
2018-09-05T12:09:19.076Z,0.60
2018-09-05T12:11:48.145Z,0.40
2018-09-05T12:14:17.008Z,0.53
2018-09-05T12:16:45.937Z,0.50
2018-09-05T12:19:14.906Z,0.57
2018-09-05T12:21:43.845Z,0.50
2018-09-05T12:24:12.772Z,0.60
2018-09-05T12:26:41.725Z,0.60
2018-09-05T12:29:11.883Z,0.70
2018-09-05T12:31:41.572Z,0.70
2018-09-05T12:34:10.892Z,0.72
2018-09-05T12:36:39.895Z,0.70
2018-09-05T12:39:11.337Z,0.80
2018-09-05T12:41:40.548Z,0.70
2018-09-05T12:44:09.696Z,0.80
2018-09-05T12:46:38.932Z,0.70
2018-09-05T12:49:07.881Z,0.72
2018-09-05T12:51:37.019Z,0.80
2018-09-05T12:54:06.421Z,0.50
2018-09-05T12:56:35.361Z,0.70
2018-09-05T12:59:04.284Z,0.70
2018-09-05T13:01:33.222Z,0.60
2018-09-05T13:04:02.425Z,0.70
2018-09-05T13:06:31.398Z,0.60
2018-09-05T13:09:00.359Z,0.80
2018-09-05T13:11:29.490Z,0.80
2018-09-05T13:13:58.410Z,0.80
2018-09-05T13:16:27.368Z,0.82
2018-09-05T13:18:56.329Z,0.70
2018-09-05T13:21:25.251Z,0.65
2018-09-05T13:23:54.184Z,0.60
2018-09-05T13:26:23.106Z,0.65
2018-09-05T13:28:52.045Z,0.65
2018-09-05T13:31:20.988Z,0.72
2018-09-05T13:33:49.903Z,0.65
2018-09-05T13:36:18.850Z,0.60
2018-09-05T13:38:47.785Z,0.72
2018-09-05T13:41:16.842Z,0.68
2018-09-05T13:43:45.776Z,0.70
2018-09-05T13:46:14.713Z,0.70
2018-09-05T13:48:43.641Z,0.72
2018-09-05T13:51:12.612Z,0.60
2018-09-05T13:53:41.550Z,0.75
2018-09-05T13:56:10.656Z,0.70
2018-09-05T13:58:39.608Z,0.70
2018-09-05T14:01:08.538Z,0.70
2018-09-05T14:03:37.471Z,0.70
2018-09-05T14:06:06.433Z,0.70
2018-09-05T14:08:35.410Z,0.60
2018-09-05T14:11:04.339Z,0.70
2018-09-05T14:13:33.441Z,0.60
2018-09-05T14:16:02.338Z,0.60
2018-09-05T14:18:31.253Z,0.57
2018-09-05T14:21:00.198Z,0.80
2018-09-05T14:23:29.282Z,0.50
2018-09-05T14:25:58.248Z,0.70
2018-09-05T14:28:27.211Z,0.60
2018-09-05T14:30:56.477Z,0.70
2018-09-05T14:33:25.443Z,0.70
2018-09-05T14:35:54.784Z,0.70
2018-09-05T14:38:23.728Z,0.85
2018-09-05T14:40:52.666Z,0.78
2018-09-05T14:43:22.188Z,0.82
2018-09-05T14:45:51.156Z,0.60
2018-09-05T14:48:20.180Z,0.60
2018-09-05T14:50:49.320Z,0.60
2018-09-05T14:53:18.252Z,0.60
2018-09-05T14:55:47.273Z,0.60
2018-09-05T14:58:16.258Z,0.55
2018-09-05T15:00:45.202Z,0.57
2018-09-05T15:03:14.165Z,0.65
2018-09-05T15:05:43.083Z,0.70
2018-09-05T15:08:12.123Z,0.70
2018-09-05T15:10:41.091Z,0.68
2018-09-05T15:13:10.021Z,0.70
2018-09-05T15:15:39.019Z,0.70
2018-09-05T15:18:07.936Z,0.60
2018-09-05T15:20:36.973Z,0.72
2018-09-05T15:23:06.353Z,0.70
2018-09-05T15:25:35.490Z,0.70
2018-09-05T15:28:04.412Z,0.65
2018-09-05T15:30:33.333Z,0.60
2018-09-05T15:33:02.321Z,0.70
2018-09-05T15:35:31.296Z,0.60
2018-09-05T15:38:00.270Z,0.65
2018-09-05T15:40:29.366Z,0.60
2018-09-05T15:42:58.416Z,0.70
2018-09-05T15:45:28.252Z,0.70
2018-09-05T15:47:57.213Z,0.60
2018-09-05T15:50:26.154Z,0.70
2018-09-05T15:52:55.097Z,0.72
2018-09-05T15:55:24.414Z,0.50
2018-09-05T15:57:53.352Z,0.70
2018-09-05T16:00:22.304Z,0.50
2018-09-05T16:02:51.352Z,0.60
2018-09-05T16:05:20.280Z,0.68
2018-09-05T16:07:49.318Z,0.60
2018-09-05T16:10:18.316Z,0.60
2018-09-05T16:12:47.173Z,0.60
2018-09-05T16:15:16.280Z,0.53
2018-09-05T16:17:45.165Z,0.70
2018-09-05T16:20:14.131Z,0.60
2018-09-05T16:22:43.147Z,0.50
2018-09-05T16:25:12.240Z,0.60
2018-09-05T16:27:41.186Z,0.53
2018-09-05T16:30:10.162Z,0.50
2018-09-05T16:32:39.109Z,0.60
2018-09-05T16:35:08.042Z,0.70
2018-09-05T16:37:36.957Z,0.50
2018-09-05T16:40:06.019Z,0.50
2018-09-05T16:42:34.944Z,0.53
2018-09-05T16:45:03.907Z,0.40
2018-09-05T16:47:32.913Z,0.60
2018-09-05T16:50:01.904Z,0.50
2018-09-05T16:52:31.172Z,0.57
2018-09-05T16:55:00.352Z,0.60
2018-09-05T16:57:29.284Z,0.50
2018-09-05T16:59:58.224Z,0.70
2018-09-05T17:02:27.201Z,0.50
2018-09-05T17:04:56.217Z,0.70
2018-09-05T17:07:25.208Z,0.50
2018-09-05T17:09:54.257Z,0.30
2018-09-05T17:12:23.142Z,0.40
2018-09-05T17:14:52.195Z,0.40
2018-09-05T17:17:21.108Z,0.50
2018-09-05T17:19:50.085Z,0.47
2018-09-05T17:22:19.025Z,0.40
2018-09-05T17:24:48.037Z,0.40
2018-09-05T17:27:17.107Z,0.50
2018-09-05T17:29:46.045Z,0.43
2018-09-05T17:32:15.022Z,0.50
2018-09-05T17:34:44.041Z,0.40
2018-09-05T17:37:13.043Z,0.50
2018-09-05T17:39:42.140Z,0.53
2018-09-05T17:42:10.755Z,0.30
2018-09-05T17:44:39.424Z,0.40
2018-09-05T17:47:08.377Z,0.50
2018-09-05T17:49:37.367Z,0.43
2018-09-05T17:52:06.318Z,0.40
2018-09-05T17:54:35.272Z,0.40
2018-09-05T17:57:04.346Z,0.40
2018-09-05T17:59:33.343Z,0.33
2018-09-05T18:02:02.377Z,0.30
2018-09-05T18:04:31.376Z,0.50
2018-09-05T18:07:00.354Z,0.30
2018-09-05T18:09:29.320Z,0.30
2018-09-05T18:11:58.351Z,0.50
2018-09-05T18:14:27.313Z,0.43
2018-09-05T18:16:56.334Z,0.30
2018-09-05T18:19:25.313Z,0.30
2018-09-05T18:21:54.331Z,0.30
2018-09-05T18:24:23.359Z,0.30
2018-09-05T18:26:52.200Z,0.50
2018-09-05T18:29:21.315Z,0.20
2018-09-05T18:31:50.348Z,0.47
2018-09-05T18:34:19.316Z,0.30
2018-09-05T18:36:48.295Z,0.40
2018-09-05T18:39:17.217Z,0.30
2018-09-05T18:41:46.168Z,0.40
2018-09-05T18:44:15.122Z,0.40
2018-09-05T18:46:44.107Z,0.40
2018-09-05T18:49:13.090Z,0.27
2018-09-05T18:51:41.969Z,0.30
2018-09-05T18:54:10.989Z,0.30
2018-09-05T18:56:39.933Z,0.30
2018-09-05T18:59:08.991Z,0.30
2018-09-05T19:01:38.065Z,0.30
2018-09-05T19:04:07.265Z,0.30
2018-09-05T19:06:36.254Z,0.30
2018-09-05T19:09:08.887Z,0.33
2018-09-05T19:11:38.055Z,0.30
2018-09-05T19:14:07.170Z,0.30
2018-09-05T19:16:36.105Z,0.30
2018-09-05T19:19:05.164Z,0.40
2018-09-05T19:21:34.130Z,0.20
2018-09-05T19:24:04.957Z,0.20
2018-09-05T19:26:34.013Z,0.30
2018-09-05T19:29:03.176Z,0.30
2018-09-05T19:31:32.101Z,0.37
2018-09-05T19:34:01.105Z,0.30
2018-09-05T19:36:30.127Z,0.30
2018-09-05T19:38:59.130Z,0.20
2018-09-05T19:41:28.052Z,0.30
2018-09-05T19:43:57.132Z,0.30
2018-09-05T19:46:26.119Z,0.30
2018-09-05T19:48:55.093Z,0.40
2018-09-05T19:51:24.069Z,0.30
2018-09-05T19:53:53.074Z,0.33
2018-09-05T19:56:22.266Z,0.30
2018-09-05T19:58:51.225Z,0.30
2018-09-05T20:01:20.269Z,0.30
2018-09-05T20:03:49.313Z,0.40
2018-09-05T20:06:18.339Z,0.30
2018-09-05T20:08:47.509Z,0.30
2018-09-05T20:11:16.481Z,0.20
2018-09-05T20:13:45.451Z,0.30
2018-09-05T20:16:15.408Z,0.30
2018-09-05T20:18:44.391Z,0.20
2018-09-05T20:21:13.352Z,0.20
2018-09-05T20:23:42.289Z,0.30
2018-09-05T20:26:11.414Z,0.20
2018-09-05T20:28:40.532Z,0.20
2018-09-05T20:31:09.532Z,0.10
2018-09-05T20:33:38.580Z,0.43
2018-09-05T20:36:07.550Z,0.20
2018-09-05T20:38:36.554Z,0.40
2018-09-05T20:41:05.510Z,0.30
2018-09-05T20:43:34.450Z,0.10
2018-09-05T20:46:03.464Z,0.40
2018-09-05T20:48:32.487Z,0.33
2018-09-05T20:51:01.450Z,0.30
2018-09-05T20:53:30.370Z,0.20
2018-09-05T20:55:59.378Z,0.10
2018-09-05T20:58:28.602Z,0.20
2018-09-05T21:00:57.872Z,0.20
2018-09-05T21:03:26.825Z,0.20
2018-09-05T21:05:55.893Z,0.30
2018-09-05T21:08:24.864Z,0.23
2018-09-05T21:10:53.802Z,0.30
2018-09-05T21:13:22.825Z,0.20
2018-09-05T21:15:51.838Z,0.30
2018-09-05T21:18:20.794Z,0.20
2018-09-05T21:20:50.365Z,0.20
2018-09-05T21:23:19.279Z,0.30
2018-09-05T21:25:48.193Z,0.20
2018-09-05T21:28:17.139Z,0.20
2018-09-05T21:30:46.134Z,0.20
2018-09-05T21:33:15.066Z,0.27
2018-09-05T21:35:44.058Z,0.20
2018-09-05T21:38:12.994Z,0.30
2018-09-05T21:40:41.980Z,0.27
2018-09-05T21:43:10.950Z,0.30
2018-09-05T21:45:39.889Z,0.20
2018-09-05T21:48:08.819Z,0.40
2018-09-05T21:50:37.925Z,0.30
2018-09-05T21:53:06.903Z,0.20
2018-09-05T21:55:35.910Z,0.30
2018-09-05T21:58:04.794Z,0.30
2018-09-05T22:00:33.699Z,0.30
2018-09-05T22:03:02.624Z,0.30
2018-09-05T22:05:31.595Z,0.30
2018-09-05T22:08:00.524Z,0.20
2018-09-05T22:10:29.465Z,0.20
2018-09-05T22:12:58.478Z,0.17
2018-09-05T22:15:30.847Z,0.40
2018-09-05T22:17:59.773Z,0.20
2018-09-05T22:20:28.741Z,0.30
2018-09-05T22:22:57.703Z,0.30
2018-09-05T22:25:26.625Z,0.23
2018-09-05T22:27:55.517Z,0.30
2018-09-05T22:30:24.409Z,0.20
2018-09-05T22:32:53.362Z,0.20
2018-09-05T22:35:22.279Z,0.30
2018-09-05T22:37:51.221Z,0.20
2018-09-05T22:40:20.241Z,0.23
2018-09-05T22:43:00.522Z,0.30
2018-09-05T22:45:40.966Z,0.20
2018-09-05T22:48:29.230Z,0.20
2018-09-05T22:51:13.698Z,0.33
2018-09-05T22:53:59.046Z,0.30
2018-09-05T22:57:58.369Z,0.20
2018-09-05T23:00:41.300Z,0.33
2018-09-05T23:03:27.137Z,0.20
2018-09-05T23:08:11.450Z,0.30
2018-09-05T23:10:51.809Z,0.30
2018-09-05T23:13:34.014Z,0.37
2018-09-05T23:16:16.303Z,0.30
2018-09-05T23:19:25.878Z,0.27
2018-09-05T23:21:54.825Z,0.37
2018-09-05T23:24:24.857Z,0.33
2018-09-05T23:27:00.539Z,0.37
2018-09-05T23:29:29.466Z,0.40
2018-09-05T23:31:58.490Z,0.30
2018-09-05T23:34:27.482Z,0.37
2018-09-05T23:36:56.474Z,0.30
2018-09-05T23:39:25.388Z,0.30
2018-09-05T23:41:54.310Z,0.30
2018-09-05T23:44:23.242Z,0.40
2018-09-05T23:46:52.244Z,0.23
2018-09-05T23:49:21.154Z,0.20
2018-09-05T23:51:50.084Z,0.20
2018-09-05T23:54:18.981Z,0.40
2018-09-05T23:56:47.935Z,0.40
2018-09-05T23:59:16.930Z,0.30
